createdAt,value
2018-02-17T00:00:48.309Z,3.24
2018-02-17T00:03:19.284Z,3.27
2018-02-17T00:05:50.107Z,3.26
2018-02-17T00:08:20.144Z,3.28
2018-02-17T00:10:48.945Z,3.28
2018-02-17T00:13:18.126Z,3.30
2018-02-17T00:15:47.218Z,3.30
2018-02-17T00:18:16.383Z,3.30
2018-02-17T00:20:45.403Z,3.32
2018-02-17T00:23:14.358Z,3.31
2018-02-17T00:25:43.288Z,3.31
2018-02-17T00:28:11.999Z,3.30
2018-02-17T00:30:40.661Z,3.29
2018-02-17T00:33:09.447Z,3.28
2018-02-17T00:35:38.828Z,3.26
2018-02-17T00:38:07.611Z,3.27
2018-02-17T00:40:36.385Z,3.26
2018-02-17T00:43:05.540Z,3.25
2018-02-17T00:45:34.359Z,3.23
2018-02-17T00:48:03.284Z,3.24
2018-02-17T00:50:32.552Z,3.24
2018-02-17T00:53:01.345Z,3.25
2018-02-17T00:55:30.260Z,3.23
2018-02-17T00:57:59.446Z,3.16
2018-02-17T01:00:28.339Z,3.14
2018-02-17T01:02:57.291Z,3.13
2018-02-17T01:05:26.464Z,3.10
2018-02-17T01:07:55.602Z,3.08
2018-02-17T01:10:24.399Z,3.08
2018-02-17T01:12:53.426Z,3.04
2018-02-17T01:15:22.308Z,3.02
2018-02-17T01:17:51.308Z,2.99
2018-02-17T01:20:20.473Z,2.93
2018-02-17T01:22:49.372Z,2.90
2018-02-17T01:25:18.435Z,2.83
2018-02-17T01:27:47.395Z,2.79
2018-02-17T01:30:16.502Z,2.77
2018-02-17T01:32:47.767Z,2.75
2018-02-17T01:35:16.581Z,2.73
2018-02-17T01:37:45.369Z,2.73
2018-02-17T01:40:14.227Z,2.72
2018-02-17T01:42:43.221Z,2.73
2018-02-17T01:45:12.287Z,2.72
2018-02-17T01:47:41.335Z,2.71
2018-02-17T01:50:21.464Z,2.70
2018-02-17T01:52:50.287Z,2.69
2018-02-17T01:55:19.096Z,2.68
2018-02-17T01:57:47.751Z,2.67
2018-02-17T02:00:16.616Z,2.63
2018-02-17T02:02:45.387Z,2.61
2018-02-17T02:05:14.311Z,2.58
2018-02-17T02:07:43.223Z,2.57
2018-02-17T02:10:12.212Z,2.56
2018-02-17T02:12:41.023Z,2.54
2018-02-17T02:15:10.179Z,2.53
2018-02-17T02:17:38.963Z,2.51
2018-02-17T02:20:07.768Z,2.48
2018-02-17T02:22:36.715Z,2.45
2018-02-17T02:25:05.515Z,2.36
2018-02-17T02:27:34.296Z,2.31
2018-02-17T02:30:03.151Z,2.25
2018-02-17T02:32:32.236Z,2.26
2018-02-17T02:35:01.225Z,2.27
2018-02-17T02:37:30.359Z,2.27
2018-02-17T02:39:59.312Z,2.27
2018-02-17T02:42:28.325Z,2.26
2018-02-17T02:44:57.337Z,2.23
2018-02-17T02:47:26.297Z,2.21
2018-02-17T02:49:55.260Z,2.21
2018-02-17T02:52:24.699Z,2.18
2018-02-17T02:54:53.488Z,2.16
2018-02-17T02:57:22.264Z,2.15
2018-02-17T02:59:51.350Z,2.14
2018-02-17T03:02:20.509Z,2.13
2018-02-17T03:04:50.798Z,2.11
2018-02-17T03:07:19.969Z,2.09
2018-02-17T03:09:48.755Z,2.07
2018-02-17T03:12:17.671Z,2.08
2018-02-17T03:14:46.795Z,2.07
2018-02-17T03:17:15.862Z,2.04
2018-02-17T03:19:44.939Z,2.04
2018-02-17T03:22:14.414Z,2.02
2018-02-17T03:24:43.592Z,2.00
2018-02-17T03:27:12.655Z,1.99
2018-02-17T03:29:41.804Z,1.98
2018-02-17T03:32:10.885Z,1.99
2018-02-17T03:34:41.307Z,1.98
2018-02-17T03:37:10.839Z,1.98
2018-02-17T03:39:41.511Z,1.96
2018-02-17T03:42:12.319Z,1.96
2018-02-17T03:44:43.216Z,1.96
2018-02-17T03:47:14.425Z,1.94
2018-02-17T03:49:44.943Z,1.92
2018-02-17T03:52:15.347Z,1.90
2018-02-17T03:54:46.752Z,1.89
2018-02-17T03:57:17.359Z,1.87
2018-02-17T03:59:48.772Z,1.85
2018-02-17T04:02:19.485Z,1.85
2018-02-17T04:04:50.425Z,1.82
2018-02-17T04:07:21.223Z,1.81
2018-02-17T04:09:52.171Z,1.75
2018-02-17T04:12:23.200Z,1.76
2018-02-17T04:14:54.131Z,1.75
2018-02-17T04:17:24.418Z,1.75
2018-02-17T04:19:55.024Z,1.75
2018-02-17T04:22:25.694Z,1.73
2018-02-17T04:24:57.081Z,1.71
2018-02-17T04:27:27.731Z,1.68
2018-02-17T04:29:57.616Z,1.64
2018-02-17T04:32:28.312Z,1.60
2018-02-17T04:34:59.158Z,1.59
2018-02-17T04:37:32.984Z,1.57
2018-02-17T04:40:05.720Z,1.54
2018-02-17T04:42:39.366Z,1.54
2018-02-17T04:45:21.214Z,1.51
2018-02-17T04:51:10.675Z,1.45
2018-02-17T04:53:54.203Z,1.45
2018-02-17T04:56:28.744Z,1.45
2018-02-17T04:59:02.367Z,1.45
2018-02-17T05:04:47.071Z,1.43
2018-02-17T05:10:23.993Z,1.40
2018-02-17T05:12:52.979Z,1.39
2018-02-17T05:15:21.896Z,1.38
2018-02-17T05:17:56.614Z,1.36
2018-02-17T05:20:44.163Z,1.34
2018-02-17T05:23:13.536Z,1.31
2018-02-17T05:25:47.884Z,1.26
2018-02-17T05:28:22.361Z,1.29
2018-02-17T05:30:51.288Z,1.28
2018-02-17T05:33:21.998Z,1.26
2018-02-17T05:35:58.508Z,1.24
2018-02-17T05:38:39.907Z,1.23
2018-02-17T05:41:08.703Z,1.20
2018-02-17T05:43:37.348Z,1.20
2018-02-17T05:49:17.708Z,1.15
2018-02-17T05:51:46.420Z,1.12
2018-02-17T05:54:15.421Z,1.10
2018-02-17T05:56:44.253Z,1.10
2018-02-17T05:59:13.754Z,1.07
2018-02-17T06:01:42.551Z,1.03
2018-02-17T06:04:11.634Z,1.05
2018-02-17T06:06:40.492Z,1.03
2018-02-17T06:09:09.296Z,1.02
2018-02-17T06:11:38.191Z,1.00
2018-02-17T06:14:07.204Z,0.98
2018-02-17T06:16:36.091Z,0.95
2018-02-17T06:19:05.044Z,0.93
2018-02-17T06:21:34.198Z,0.90
2018-02-17T06:24:03.296Z,0.89
2018-02-17T06:26:32.332Z,0.88
2018-02-17T06:29:01.430Z,0.89
2018-02-17T06:31:30.681Z,0.91
2018-02-17T06:33:59.505Z,0.90
2018-02-17T06:36:28.348Z,0.91
2018-02-17T06:38:57.298Z,0.88
2018-02-17T06:41:26.323Z,0.88
2018-02-17T06:43:55.295Z,0.87
2018-02-17T06:46:24.319Z,0.88
2018-02-17T06:48:53.852Z,0.89
2018-02-17T06:51:22.710Z,0.90
2018-02-17T06:53:51.856Z,0.91
2018-02-17T06:56:20.822Z,0.93
2018-02-17T06:58:49.715Z,0.96
2018-02-17T07:01:18.799Z,0.97
2018-02-17T07:03:47.612Z,0.99
2018-02-17T07:06:16.440Z,1.02
2018-02-17T07:08:45.252Z,1.04
2018-02-17T07:11:14.211Z,1.05
2018-02-17T07:13:43.335Z,1.06
2018-02-17T07:16:12.424Z,1.09
2018-02-17T07:18:41.811Z,1.13
2018-02-17T07:21:10.878Z,1.17
2018-02-17T07:23:39.957Z,1.21
2018-02-17T07:26:09.180Z,1.23
2018-02-17T07:28:38.117Z,1.30
2018-02-17T07:31:07.219Z,1.34
2018-02-17T07:33:36.351Z,1.40
2018-02-17T07:36:05.416Z,1.45
2018-02-17T07:38:35.855Z,1.54
2018-02-17T07:41:06.060Z,1.60
2018-02-17T07:43:36.382Z,1.65
2018-02-17T07:46:07.768Z,1.69
2018-02-17T07:48:38.066Z,1.76
2018-02-17T07:51:08.547Z,1.79
2018-02-17T07:53:39.376Z,1.84
2018-02-17T07:56:10.338Z,1.90
2018-02-17T07:58:41.152Z,1.95
2018-02-17T08:01:12.469Z,2.02
2018-02-17T08:03:43.403Z,2.03
2018-02-17T08:06:13.940Z,2.11
2018-02-17T08:08:44.523Z,2.19
2018-02-17T08:11:15.532Z,2.27
2018-02-17T08:13:48.779Z,2.38
2018-02-17T08:16:18.065Z,2.49
2018-02-17T08:18:48.761Z,2.60
2018-02-17T08:21:19.438Z,2.68
2018-02-17T08:23:50.296Z,2.79
2018-02-17T08:26:21.157Z,2.85
2018-02-17T08:28:52.375Z,2.95
2018-02-17T08:31:23.208Z,3.05
2018-02-17T08:33:55.264Z,3.15
2018-02-17T08:36:25.068Z,3.26
2018-02-17T08:38:56.216Z,3.38
2018-02-17T08:41:26.816Z,3.52
2018-02-17T08:43:57.408Z,3.61
2018-02-17T08:46:28.364Z,3.69
2018-02-17T08:48:59.268Z,3.81
2018-02-17T08:51:30.235Z,3.91
2018-02-17T08:54:01.131Z,4.03
2018-02-17T08:56:32.599Z,4.16
2018-02-17T08:59:03.462Z,4.31
2018-02-17T09:01:34.383Z,4.42
2018-02-17T09:04:05.483Z,4.50
2018-02-17T09:06:36.413Z,4.59
2018-02-17T09:09:07.291Z,4.69
2018-02-17T09:11:38.064Z,4.78
2018-02-17T09:14:09.317Z,4.85
2018-02-17T09:16:40.218Z,4.94
2018-02-17T09:19:12.346Z,4.99
2018-02-17T09:21:42.983Z,5.03
2018-02-17T09:24:13.598Z,5.12
2018-02-17T09:26:45.123Z,5.20
2018-02-17T09:29:15.730Z,5.25
2018-02-17T09:31:46.559Z,5.28
2018-02-17T09:34:17.406Z,5.32
2018-02-17T09:36:48.404Z,5.36
2018-02-17T09:39:19.358Z,5.40
2018-02-17T09:41:50.287Z,5.41
2018-02-17T09:44:21.172Z,5.42
2018-02-17T09:46:52.521Z,5.51
2018-02-17T09:49:23.389Z,5.50
2018-02-17T09:51:54.683Z,5.50
2018-02-17T09:54:26.497Z,5.49
2018-02-17T09:56:58.220Z,5.56
2018-02-17T09:59:28.889Z,5.67
2018-02-17T10:01:58.053Z,5.71
2018-02-17T10:04:28.536Z,5.74
2018-02-17T10:06:59.423Z,5.79
2018-02-17T10:09:29.978Z,5.79
2018-02-17T10:12:00.484Z,5.82
2018-02-17T10:14:31.440Z,5.83
2018-02-17T10:17:02.313Z,5.88
2018-02-17T10:19:32.970Z,5.85
2018-02-17T10:22:03.552Z,5.92
2018-02-17T10:24:34.603Z,5.99
2018-02-17T10:27:05.140Z,6.02
2018-02-17T10:29:35.636Z,6.10
2018-02-17T10:32:06.162Z,6.17
2018-02-17T10:34:36.546Z,6.25
2018-02-17T10:37:07.389Z,6.30
2018-02-17T10:39:38.315Z,6.35
2018-02-17T10:42:09.163Z,6.41
2018-02-17T10:44:40.454Z,6.47
2018-02-17T10:47:11.624Z,6.53
2018-02-17T10:49:42.709Z,6.65
2018-02-17T10:52:13.410Z,6.67
2018-02-17T10:54:44.299Z,6.68
2018-02-17T10:57:15.131Z,6.70
2018-02-17T10:59:46.522Z,6.72
2018-02-17T11:02:17.417Z,6.75
2018-02-17T11:04:48.441Z,6.74
2018-02-17T11:07:18.192Z,6.69
2018-02-17T11:09:48.823Z,6.79
2018-02-17T11:12:20.068Z,6.91
2018-02-17T11:14:50.774Z,6.87
2018-02-17T11:17:22.980Z,6.90
2018-02-17T11:19:54.451Z,6.91
2018-02-17T11:22:25.407Z,6.96
2018-02-17T11:24:56.267Z,7.01
2018-02-17T11:27:26.795Z,7.17
2018-02-17T11:29:57.560Z,7.29
2018-02-17T11:32:28.417Z,7.41
2018-02-17T11:34:59.354Z,7.51
2018-02-17T11:37:30.349Z,7.56
2018-02-17T11:40:01.286Z,7.66
2018-02-17T11:42:32.618Z,7.67
2018-02-17T11:45:05.208Z,7.65
2018-02-17T11:47:34.992Z,7.75
2018-02-17T11:50:05.299Z,7.74
2018-02-17T11:52:34.676Z,7.51
2018-02-17T11:55:05.366Z,7.56
2018-02-17T11:57:36.040Z,7.69
2018-02-17T12:00:06.373Z,7.82
2018-02-17T12:02:36.853Z,7.91
2018-02-17T12:05:07.807Z,7.96
2018-02-17T12:07:38.701Z,7.95
2018-02-17T12:10:10.447Z,7.93
2018-02-17T12:12:41.283Z,7.92
2018-02-17T12:15:12.254Z,7.92
2018-02-17T12:17:43.121Z,7.90
2018-02-17T12:20:16.258Z,7.92
2018-02-17T12:22:45.847Z,7.93
2018-02-17T12:25:16.583Z,8.00
2018-02-17T12:27:47.092Z,8.14
2018-02-17T12:30:19.737Z,8.28
2018-02-17T12:32:50.189Z,8.22
2018-02-17T12:35:20.848Z,8.28
2018-02-17T12:37:51.442Z,8.35
2018-02-17T12:40:22.361Z,8.28
2018-02-17T12:42:53.213Z,8.35
2018-02-17T12:45:24.989Z,8.35
2018-02-17T12:47:55.846Z,8.36
2018-02-17T12:50:26.480Z,8.28
2018-02-17T12:52:57.933Z,8.37
2018-02-17T12:55:28.562Z,8.35
2018-02-17T12:57:59.404Z,8.30
2018-02-17T13:00:30.324Z,8.15
2018-02-17T13:03:01.576Z,8.08
2018-02-17T13:05:32.515Z,8.07
2018-02-17T13:08:02.240Z,8.03
2018-02-17T13:10:33.218Z,7.80
2018-02-17T13:13:04.164Z,7.97
2018-02-17T13:15:35.515Z,7.95
2018-02-17T13:18:06.386Z,8.04
2018-02-17T13:20:37.260Z,8.17
2018-02-17T13:23:08.172Z,8.27
2018-02-17T13:25:39.563Z,8.37
2018-02-17T13:28:09.974Z,8.35
2018-02-17T13:30:41.544Z,8.41
2018-02-17T13:33:15.200Z,8.44
2018-02-17T13:35:44.346Z,8.16
2018-02-17T13:38:14.927Z,7.84
2018-02-17T13:40:45.571Z,7.95
2018-02-17T13:43:17.223Z,8.08
2018-02-17T13:45:47.802Z,8.17
2018-02-17T13:48:18.525Z,8.27
2018-02-17T13:50:49.471Z,8.29
2018-02-17T13:53:20.218Z,8.38
2018-02-17T13:55:52.463Z,8.45
2018-02-17T13:58:23.576Z,8.52
2018-02-17T14:00:54.125Z,8.24
2018-02-17T14:03:24.434Z,8.38
2018-02-17T14:05:55.065Z,8.46
2018-02-17T14:08:25.511Z,8.49
2018-02-17T14:10:56.423Z,8.53
2018-02-17T14:13:27.305Z,8.54
2018-02-17T14:15:58.233Z,8.64
2018-02-17T14:18:29.780Z,8.63
2018-02-17T14:21:00.200Z,8.45
2018-02-17T14:23:33.160Z,8.40
2018-02-17T14:26:02.401Z,8.37
2018-02-17T14:28:33.533Z,8.39
2018-02-17T14:31:04.098Z,8.39
2018-02-17T14:33:33.739Z,8.35
2018-02-17T14:36:04.459Z,8.45
2018-02-17T14:38:35.416Z,8.41
2018-02-17T14:41:06.331Z,8.35
2018-02-17T14:43:37.181Z,8.27
2018-02-17T14:46:08.193Z,8.14
2018-02-17T14:48:39.003Z,8.15
2018-02-17T14:51:10.446Z,8.12
2018-02-17T14:53:41.320Z,8.07
2018-02-17T14:56:12.391Z,8.05
2018-02-17T14:58:43.384Z,8.02
2018-02-17T15:01:14.283Z,8.00
2018-02-17T15:03:44.780Z,7.98
2018-02-17T15:06:15.599Z,7.97
2018-02-17T15:08:46.551Z,7.93
2018-02-17T15:11:17.466Z,7.90
2018-02-17T15:13:48.412Z,7.91
2018-02-17T15:16:19.285Z,7.86
2018-02-17T15:18:50.522Z,7.80
2018-02-17T15:21:21.118Z,7.77
2018-02-17T15:23:52.194Z,7.71
2018-02-17T15:26:23.151Z,7.67
2018-02-17T15:28:53.579Z,7.64
2018-02-17T15:31:24.559Z,7.57
2018-02-17T15:33:54.989Z,7.54
2018-02-17T15:36:25.578Z,7.50
2018-02-17T15:38:56.438Z,7.46
2018-02-17T15:41:27.382Z,7.42
2018-02-17T15:43:58.313Z,7.37
2018-02-17T15:46:29.462Z,7.32
2018-02-17T15:49:00.320Z,7.28
2018-02-17T15:51:30.891Z,7.26
2018-02-17T15:54:01.530Z,7.21
2018-02-17T15:56:32.442Z,7.18
2018-02-17T15:59:03.017Z,7.13
2018-02-17T16:01:33.536Z,7.10
2018-02-17T16:04:04.396Z,7.07
2018-02-17T16:06:35.382Z,7.01
2018-02-17T16:09:05.991Z,6.96
2018-02-17T16:11:37.335Z,6.92
2018-02-17T16:14:08.382Z,6.86
2018-02-17T16:16:39.301Z,6.81
2018-02-17T16:19:17.288Z,6.76
2018-02-17T16:22:09.716Z,6.72
2018-02-17T16:24:39.276Z,6.67
2018-02-17T16:27:08.548Z,6.64
2018-02-17T16:29:37.229Z,6.59
2018-02-17T16:32:06.405Z,6.57
2018-02-17T16:34:36.111Z,6.52
2018-02-17T16:37:05.225Z,6.47
2018-02-17T16:39:34.188Z,6.42
2018-02-17T16:42:03.858Z,6.39
2018-02-17T16:44:32.977Z,6.34
2018-02-17T16:47:02.104Z,6.31
2018-02-17T16:49:31.362Z,6.25
2018-02-17T16:52:00.597Z,6.22
2018-02-17T16:54:29.869Z,6.19
2018-02-17T16:56:59.203Z,6.15
2018-02-17T16:59:28.572Z,6.11
2018-02-17T17:01:58.108Z,6.07
2018-02-17T17:04:28.698Z,6.06
2018-02-17T17:06:59.201Z,6.01
2018-02-17T17:09:30.551Z,5.98
2018-02-17T17:12:01.330Z,5.95
2018-02-17T17:14:32.354Z,5.90
2018-02-17T17:17:03.276Z,5.85
2018-02-17T17:19:34.263Z,5.81
2018-02-17T17:22:04.892Z,5.75
2018-02-17T17:24:35.211Z,5.69
2018-02-17T17:27:05.929Z,5.64
2018-02-17T17:29:36.520Z,5.60
2018-02-17T17:32:07.618Z,5.55
2018-02-17T17:34:38.672Z,5.51
2018-02-17T17:37:09.023Z,5.46
2018-02-17T17:39:40.781Z,5.43
2018-02-17T17:42:12.372Z,5.39
2018-02-17T17:44:43.116Z,5.36
2018-02-17T17:47:13.610Z,5.35
2018-02-17T17:49:44.510Z,5.33
2018-02-17T17:52:15.482Z,5.29
2018-02-17T17:54:46.442Z,5.24
2018-02-17T17:57:17.310Z,5.18
2018-02-17T17:59:48.256Z,5.18
2018-02-17T18:02:19.168Z,5.14
2018-02-17T18:04:50.160Z,5.11
2018-02-17T18:07:21.999Z,5.09
2018-02-17T18:09:52.601Z,5.06
2018-02-17T18:12:23.560Z,5.01
2018-02-17T18:14:54.500Z,4.96
2018-02-17T18:17:25.369Z,4.93
2018-02-17T18:19:56.269Z,4.92
2018-02-17T18:22:26.783Z,4.90
2018-02-17T18:24:57.465Z,4.85
2018-02-17T18:27:28.295Z,4.81
2018-02-17T18:30:03.868Z,4.79
2018-02-17T18:32:33.117Z,4.77
2018-02-17T18:35:02.232Z,4.74
2018-02-17T18:37:32.810Z,4.73
2018-02-17T18:40:03.476Z,4.70
2018-02-17T18:42:34.357Z,4.71
2018-02-17T18:45:05.204Z,4.70
2018-02-17T18:47:35.756Z,4.70
2018-02-17T18:50:06.109Z,4.67
2018-02-17T18:52:37.476Z,4.67
2018-02-17T18:55:07.988Z,4.67
2018-02-17T18:57:40.888Z,4.66
2018-02-17T19:00:10.085Z,4.66
2018-02-17T19:02:40.566Z,4.64
2018-02-17T19:05:11.340Z,4.65
2018-02-17T19:07:42.112Z,4.64
2018-02-17T19:10:12.352Z,4.64
2018-02-17T19:12:43.184Z,4.69
2018-02-17T19:15:14.160Z,4.70
2018-02-17T19:17:45.648Z,4.71
2018-02-17T19:20:20.861Z,4.72
2018-02-17T19:22:55.879Z,4.73
2018-02-17T19:25:31.173Z,4.73
2018-02-17T19:30:36.809Z,4.74
2018-02-17T19:33:06.915Z,4.75
2018-02-17T19:35:36.072Z,4.77
2018-02-17T19:38:05.256Z,4.76
2018-02-17T19:40:34.648Z,4.77
2018-02-17T19:43:03.913Z,4.77
2018-02-17T19:45:33.095Z,4.78
2018-02-17T19:48:02.589Z,4.78
2018-02-17T19:50:31.816Z,4.78
2018-02-17T19:53:01.949Z,4.79
2018-02-17T19:55:31.158Z,4.79
2018-02-17T19:58:00.673Z,4.77
2018-02-17T20:00:31.301Z,4.79
2018-02-17T20:03:02.062Z,4.77
2018-02-17T20:05:33.193Z,4.78
2018-02-17T20:08:04.494Z,4.78
2018-02-17T20:10:35.078Z,4.79
2018-02-17T20:13:06.670Z,4.79
2018-02-17T20:15:37.252Z,4.79
2018-02-17T20:18:07.944Z,4.79
2018-02-17T20:20:38.986Z,4.79
2018-02-17T20:23:19.275Z,4.79
2018-02-17T20:25:54.264Z,4.79
2018-02-17T20:28:28.818Z,4.78
2018-02-17T20:37:04.969Z,4.76
2018-02-17T20:39:48.644Z,4.76
2018-02-17T20:42:28.025Z,4.75
2018-02-17T20:44:56.885Z,4.75
2018-02-17T20:47:25.584Z,4.74
2018-02-17T20:49:55.909Z,4.73
2018-02-17T20:52:24.783Z,4.74
2018-02-17T20:54:53.817Z,4.74
2018-02-17T20:57:22.876Z,4.74
2018-02-17T20:59:51.721Z,4.72
2018-02-17T21:02:26.890Z,4.72
2018-02-17T21:04:55.763Z,4.71
2018-02-17T21:07:26.035Z,4.72
2018-02-17T21:09:54.878Z,4.72
2018-02-17T21:12:23.801Z,4.71
2018-02-17T21:14:53.597Z,4.72
2018-02-17T21:17:22.748Z,4.70
2018-02-17T21:19:51.682Z,4.70
2018-02-17T21:22:20.805Z,4.67
2018-02-17T21:24:49.733Z,4.65
2018-02-17T21:27:18.790Z,4.64
2018-02-17T21:29:49.696Z,4.64
2018-02-17T21:32:18.790Z,4.61
2018-02-17T21:34:47.740Z,4.62
2018-02-17T21:37:16.818Z,4.61
2018-02-17T21:39:45.712Z,4.61
2018-02-17T21:42:14.826Z,4.60
2018-02-17T21:44:43.866Z,4.59
2018-02-17T21:47:12.748Z,4.60
2018-02-17T21:49:41.788Z,4.58
2018-02-17T21:52:10.763Z,4.57
2018-02-17T21:54:39.755Z,4.57
2018-02-17T21:57:08.549Z,4.56
2018-02-17T21:59:37.696Z,4.54
2018-02-17T22:02:06.800Z,4.52
2018-02-17T22:04:35.808Z,4.53
2018-02-17T22:07:04.835Z,4.53
2018-02-17T22:09:33.717Z,4.53
2018-02-17T22:12:02.669Z,4.51
2018-02-17T22:14:31.770Z,4.51
2018-02-17T22:17:00.650Z,4.52
2018-02-17T22:19:29.668Z,4.50
2018-02-17T22:21:58.768Z,4.49
2018-02-17T22:24:27.712Z,4.46
2018-02-17T22:26:57.009Z,4.43
2018-02-17T22:29:25.888Z,4.42
2018-02-17T22:31:54.733Z,4.26
2018-02-17T22:34:23.634Z,4.29
2018-02-17T22:36:52.943Z,4.38
2018-02-17T22:39:21.858Z,4.39
2018-02-17T22:41:50.676Z,4.32
2018-02-17T22:44:20.596Z,4.33
2018-02-17T22:46:49.723Z,4.29
2018-02-17T22:49:18.812Z,4.31
2018-02-17T22:51:47.763Z,4.27
2018-02-17T22:54:17.475Z,4.23
2018-02-17T22:56:46.589Z,4.19
2018-02-17T22:59:17.377Z,4.13
2018-02-17T23:01:47.629Z,4.14
2018-02-17T23:04:16.944Z,4.16
2018-02-17T23:06:46.776Z,4.15
2018-02-17T23:09:16.852Z,4.19
2018-02-17T23:11:46.078Z,4.21
2018-02-17T23:14:15.229Z,4.23
2018-02-17T23:16:44.744Z,4.23
2018-02-17T23:19:14.262Z,4.25
2018-02-17T23:21:45.568Z,4.25
2018-02-17T23:24:16.127Z,4.27
2018-02-17T23:26:46.884Z,4.26
2018-02-17T23:29:17.738Z,4.27
2018-02-17T23:31:48.635Z,4.28
2018-02-17T23:34:19.553Z,4.28
2018-02-17T23:36:50.001Z,4.28
2018-02-17T23:39:20.972Z,4.24
2018-02-17T23:41:51.894Z,4.25
2018-02-17T23:44:22.382Z,4.24
2018-02-17T23:46:53.811Z,4.25
2018-02-17T23:49:24.703Z,4.24
2018-02-17T23:51:55.654Z,4.20
2018-02-17T23:54:26.280Z,4.18
2018-02-17T23:56:58.006Z,4.14
2018-02-17T23:59:29.838Z,4.13
